sensor_id;sensor_type;location;lat;lon;timestamp;P1;durP1;ratioP1;P2;durP2;ratioP2
26656;SDS011;14279;50.010;8.260;2023-03-20T00:01:53;10.80;;;7.40;;
26656;SDS011;14279;50.010;8.260;2023-03-20T00:04:19;8.80;;;7.90;;
26656;SDS011;14279;50.010;8.260;2023-03-20T00:06:45;10.30;;;7.20;;
26656;SDS011;14279;50.010;8.260;2023-03-20T00:09:10;9.30;;;7.83;;
26656;SDS011;14279;50.010;8.260;2023-03-20T00:11:46;8.73;;;7.60;;
26656;SDS011;14279;50.010;8.260;2023-03-20T00:14:14;8.80;;;7.10;;
26656;SDS011;14279;50.010;8.260;2023-03-20T00:16:42;8.70;;;7.60;;
26656;SDS011;14279;50.010;8.260;2023-03-20T00:19:16;10.77;;;7.80;;
26656;SDS011;14279;50.010;8.260;2023-03-20T00:21:43;10.70;;;8.17;;
26656;SDS011;14279;50.010;8.260;2023-03-20T00:24:11;9.87;;;7.93;;
26656;SDS011;14279;50.010;8.260;2023-03-20T00:26:36;10.53;;;8.30;;
26656;SDS011;14279;50.010;8.260;2023-03-20T00:29:02;8.50;;;7.67;;
26656;SDS011;14279;50.010;8.260;2023-03-20T00:31:32;8.63;;;7.63;;
26656;SDS011;14279;50.010;8.260;2023-03-20T00:34:00;9.07;;;6.63;;
26656;SDS011;14279;50.010;8.260;2023-03-20T00:36:28;8.73;;;7.23;;
26656;SDS011;14279;50.010;8.260;2023-03-20T00:38:53;8.17;;;7.17;;
26656;SDS011;14279;50.010;8.260;2023-03-20T00:41:28;9.50;;;7.40;;
26656;SDS011;14279;50.010;8.260;2023-03-20T00:44:01;9.43;;;8.00;;
26656;SDS011;14279;50.010;8.260;2023-03-20T00:46:32;10.00;;;7.07;;
26656;SDS011;14279;50.010;8.260;2023-03-20T00:49:02;7.33;;;6.60;;
26656;SDS011;14279;50.010;8.260;2023-03-20T00:51:28;10.00;;;7.00;;
26656;SDS011;14279;50.010;8.260;2023-03-20T00:53:53;7.60;;;6.50;;
26656;SDS011;14279;50.010;8.260;2023-03-20T00:56:29;9.37;;;7.20;;
26656;SDS011;14279;50.010;8.260;2023-03-20T00:58:58;10.10;;;7.33;;
26656;SDS011;14279;50.010;8.260;2023-03-20T01:01:25;9.10;;;7.53;;
26656;SDS011;14279;50.010;8.260;2023-03-20T01:03:51;10.80;;;7.40;;
26656;SDS011;14279;50.010;8.260;2023-03-20T01:06:16;9.37;;;7.73;;
26656;SDS011;14279;50.010;8.260;2023-03-20T01:08:42;8.00;;;6.80;;
26656;SDS011;14279;50.010;8.260;2023-03-20T01:11:08;6.97;;;6.27;;
26656;SDS011;14279;50.010;8.260;2023-03-20T01:13:36;11.57;;;6.23;;
26656;SDS011;14279;50.010;8.260;2023-03-20T01:16:05;8.00;;;7.20;;
26656;SDS011;14279;50.010;8.260;2023-03-20T01:18:30;7.50;;;6.67;;
26656;SDS011;14279;50.010;8.260;2023-03-20T01:20:56;9.20;;;7.93;;
26656;SDS011;14279;50.010;8.260;2023-03-20T01:23:21;9.80;;;6.93;;
26656;SDS011;14279;50.010;8.260;2023-03-20T01:25:50;10.93;;;6.93;;
26656;SDS011;14279;50.010;8.260;2023-03-20T01:28:17;10.83;;;7.70;;
26656;SDS011;14279;50.010;8.260;2023-03-20T01:30:45;11.10;;;7.47;;
26656;SDS011;14279;50.010;8.260;2023-03-20T01:33:12;11.50;;;7.60;;
26656;SDS011;14279;50.010;8.260;2023-03-20T01:35:42;9.07;;;7.50;;
26656;SDS011;14279;50.010;8.260;2023-03-20T01:38:12;10.40;;;7.70;;
26656;SDS011;14279;50.010;8.260;2023-03-20T01:40:48;10.97;;;9.10;;
26656;SDS011;14279;50.010;8.260;2023-03-20T01:43:20;12.97;;;8.30;;
26656;SDS011;14279;50.010;8.260;2023-03-20T01:45:53;10.30;;;8.20;;
26656;SDS011;14279;50.010;8.260;2023-03-20T01:48:24;10.60;;;9.30;;
26656;SDS011;14279;50.010;8.260;2023-03-20T01:50:57;10.73;;;8.13;;
26656;SDS011;14279;50.010;8.260;2023-03-20T01:53:24;12.53;;;9.13;;
26656;SDS011;14279;50.010;8.260;2023-03-20T01:55:52;12.30;;;8.43;;
26656;SDS011;14279;50.010;8.260;2023-03-20T01:58:21;9.70;;;8.70;;
26656;SDS011;14279;50.010;8.260;2023-03-20T02:00:50;11.23;;;8.40;;
26656;SDS011;14279;50.010;8.260;2023-03-20T02:03:16;10.93;;;8.60;;
26656;SDS011;14279;50.010;8.260;2023-03-20T02:05:43;15.13;;;8.43;;
26656;SDS011;14279;50.010;8.260;2023-03-20T02:10:40;9.30;;;7.47;;
26656;SDS011;14279;50.010;8.260;2023-03-20T02:13:07;16.10;;;8.47;;
26656;SDS011;14279;50.010;8.260;2023-03-20T02:15:35;15.00;;;7.80;;
26656;SDS011;14279;50.010;8.260;2023-03-20T02:18:00;15.90;;;7.90;;
26656;SDS011;14279;50.010;8.260;2023-03-20T02:34:11;10.20;;;7.60;;
26656;SDS011;14279;50.010;8.260;2023-03-20T02:37:02;9.27;;;7.47;;
26656;SDS011;14279;50.010;8.260;2023-03-20T02:39:50;9.20;;;7.10;;
26656;SDS011;14279;50.010;8.260;2023-03-20T02:42:34;7.80;;;7.00;;
26656;SDS011;14279;50.010;8.260;2023-03-20T02:45:29;13.27;;;7.20;;
26656;SDS011;14279;50.010;8.260;2023-03-20T02:51:02;9.90;;;8.13;;
26656;SDS011;14279;50.010;8.260;2023-03-20T02:53:38;9.97;;;6.90;;
26656;SDS011;14279;50.010;8.260;2023-03-20T02:56:29;8.93;;;7.50;;
26656;SDS011;14279;50.010;8.260;2023-03-20T02:59:25;11.37;;;6.80;;
26656;SDS011;14279;50.010;8.260;2023-03-20T03:02:21;10.30;;;7.20;;
26656;SDS011;14279;50.010;8.260;2023-03-20T03:04:57;9.40;;;6.67;;
26656;SDS011;14279;50.010;8.260;2023-03-20T03:07:26;10.23;;;7.27;;
26656;SDS011;14279;50.010;8.260;2023-03-20T03:09:56;8.73;;;7.83;;
26656;SDS011;14279;50.010;8.260;2023-03-20T03:12:30;13.67;;;7.27;;
26656;SDS011;14279;50.010;8.260;2023-03-20T03:15:05;15.23;;;6.50;;
26656;SDS011;14279;50.010;8.260;2023-03-20T03:17:46;9.73;;;8.20;;
26656;SDS011;14279;50.010;8.260;2023-03-20T03:20:24;10.67;;;8.37;;
26656;SDS011;14279;50.010;8.260;2023-03-20T03:22:54;10.93;;;8.47;;
26656;SDS011;14279;50.010;8.260;2023-03-20T03:25:20;9.53;;;7.63;;
26656;SDS011;14279;50.010;8.260;2023-03-20T03:27:49;11.30;;;8.67;;
26656;SDS011;14279;50.010;8.260;2023-03-20T03:30:25;13.60;;;8.30;;
26656;SDS011;14279;50.010;8.260;2023-03-20T03:35:35;12.00;;;8.23;;
26656;SDS011;14279;50.010;8.260;2023-03-20T03:38:24;12.40;;;9.13;;
26656;SDS011;14279;50.010;8.260;2023-03-20T03:41:03;11.40;;;8.67;;
26656;SDS011;14279;50.010;8.260;2023-03-20T03:43:38;13.70;;;9.67;;
26656;SDS011;14279;50.010;8.260;2023-03-20T03:46:19;15.53;;;8.70;;
26656;SDS011;14279;50.010;8.260;2023-03-20T03:48:52;9.60;;;8.17;;
26656;SDS011;14279;50.010;8.260;2023-03-20T03:51:25;9.70;;;7.90;;
26656;SDS011;14279;50.010;8.260;2023-03-20T03:54:29;10.90;;;8.43;;
26656;SDS011;14279;50.010;8.260;2023-03-20T03:56:49;9.37;;;7.73;;
26656;SDS011;14279;50.010;8.260;2023-03-20T03:59:35;11.70;;;9.20;;
26656;SDS011;14279;50.010;8.260;2023-03-20T04:02:04;9.63;;;7.73;;
26656;SDS011;14279;50.010;8.260;2023-03-20T04:04:32;10.43;;;8.40;;
26656;SDS011;14279;50.010;8.260;2023-03-20T04:06:59;8.90;;;8.00;;
26656;SDS011;14279;50.010;8.260;2023-03-20T04:09:24;9.80;;;8.33;;
26656;SDS011;14279;50.010;8.260;2023-03-20T04:11:50;9.80;;;8.20;;
26656;SDS011;14279;50.010;8.260;2023-03-20T04:14:17;10.93;;;8.77;;
26656;SDS011;14279;50.010;8.260;2023-03-20T04:16:43;10.87;;;8.40;;
26656;SDS011;14279;50.010;8.260;2023-03-20T04:19:09;10.93;;;8.67;;
26656;SDS011;14279;50.010;8.260;2023-03-20T04:21:34;9.33;;;8.37;;
26656;SDS011;14279;50.010;8.260;2023-03-20T04:24:00;13.00;;;8.63;;
26656;SDS011;14279;50.010;8.260;2023-03-20T04:26:25;13.13;;;10.43;;
26656;SDS011;14279;50.010;8.260;2023-03-20T04:28:51;13.47;;;9.47;;
26656;SDS011;14279;50.010;8.260;2023-03-20T04:31:16;11.40;;;9.30;;
26656;SDS011;14279;50.010;8.260;2023-03-20T04:33:42;16.33;;;11.70;;
26656;SDS011;14279;50.010;8.260;2023-03-20T04:36:08;10.57;;;9.20;;
26656;SDS011;14279;50.010;8.260;2023-03-20T04:38:34;17.53;;;10.93;;
26656;SDS011;14279;50.010;8.260;2023-03-20T04:40:59;20.57;;;13.30;;
26656;SDS011;14279;50.010;8.260;2023-03-20T04:43:25;16.40;;;11.87;;
26656;SDS011;14279;50.010;8.260;2023-03-20T04:45:50;16.63;;;12.10;;
26656;SDS011;14279;50.010;8.260;2023-03-20T04:48:15;17.43;;;11.10;;
26656;SDS011;14279;50.010;8.260;2023-03-20T04:50:41;20.77;;;13.03;;
26656;SDS011;14279;50.010;8.260;2023-03-20T04:53:06;17.63;;;13.20;;
26656;SDS011;14279;50.010;8.260;2023-03-20T04:55:31;20.97;;;15.73;;
26656;SDS011;14279;50.010;8.260;2023-03-20T04:57:57;30.80;;;18.73;;
26656;SDS011;14279;50.010;8.260;2023-03-20T05:00:22;28.27;;;17.70;;
26656;SDS011;14279;50.010;8.260;2023-03-20T05:02:47;28.40;;;18.57;;
26656;SDS011;14279;50.010;8.260;2023-03-20T05:05:12;28.70;;;17.93;;
26656;SDS011;14279;50.010;8.260;2023-03-20T05:07:38;31.10;;;19.90;;
26656;SDS011;14279;50.010;8.260;2023-03-20T05:10:03;43.53;;;23.90;;
26656;SDS011;14279;50.010;8.260;2023-03-20T05:12:29;41.33;;;23.77;;
26656;SDS011;14279;50.010;8.260;2023-03-20T05:14:55;50.33;;;27.63;;
26656;SDS011;14279;50.010;8.260;2023-03-20T05:17:21;56.37;;;28.70;;
26656;SDS011;14279;50.010;8.260;2023-03-20T05:19:47;54.47;;;28.87;;
26656;SDS011;14279;50.010;8.260;2023-03-20T05:22:13;64.00;;;31.90;;
26656;SDS011;14279;50.010;8.260;2023-03-20T05:24:39;69.80;;;33.33;;
26656;SDS011;14279;50.010;8.260;2023-03-20T05:27:05;61.90;;;31.80;;
26656;SDS011;14279;50.010;8.260;2023-03-20T05:29:30;63.20;;;31.00;;
26656;SDS011;14279;50.010;8.260;2023-03-20T05:31:55;64.60;;;31.07;;
26656;SDS011;14279;50.010;8.260;2023-03-20T05:34:21;54.57;;;29.27;;
26656;SDS011;14279;50.010;8.260;2023-03-20T05:36:46;56.77;;;28.87;;
26656;SDS011;14279;50.010;8.260;2023-03-20T05:39:11;59.50;;;29.30;;
26656;SDS011;14279;50.010;8.260;2023-03-20T05:41:37;56.33;;;30.37;;
26656;SDS011;14279;50.010;8.260;2023-03-20T05:44:02;50.90;;;28.40;;
26656;SDS011;14279;50.010;8.260;2023-03-20T05:46:28;50.80;;;27.30;;
26656;SDS011;14279;50.010;8.260;2023-03-20T05:48:53;55.10;;;27.03;;
26656;SDS011;14279;50.010;8.260;2023-03-20T05:51:18;62.27;;;27.93;;
26656;SDS011;14279;50.010;8.260;2023-03-20T05:53:44;52.57;;;25.97;;
26656;SDS011;14279;50.010;8.260;2023-03-20T05:56:09;48.77;;;25.00;;
26656;SDS011;14279;50.010;8.260;2023-03-20T05:58:34;48.93;;;26.00;;
26656;SDS011;14279;50.010;8.260;2023-03-20T06:01:00;52.93;;;27.90;;
26656;SDS011;14279;50.010;8.260;2023-03-20T06:03:25;46.53;;;27.13;;
26656;SDS011;14279;50.010;8.260;2023-03-20T06:05:51;49.87;;;26.03;;
26656;SDS011;14279;50.010;8.260;2023-03-20T06:08:16;46.00;;;26.73;;
26656;SDS011;14279;50.010;8.260;2023-03-20T06:10:41;44.10;;;26.40;;
26656;SDS011;14279;50.010;8.260;2023-03-20T06:13:06;47.53;;;26.40;;
26656;SDS011;14279;50.010;8.260;2023-03-20T06:15:32;47.93;;;27.77;;
26656;SDS011;14279;50.010;8.260;2023-03-20T06:17:57;45.77;;;24.87;;
26656;SDS011;14279;50.010;8.260;2023-03-20T06:20:23;48.80;;;27.70;;
26656;SDS011;14279;50.010;8.260;2023-03-20T06:22:48;54.60;;;28.80;;
26656;SDS011;14279;50.010;8.260;2023-03-20T06:25:13;48.30;;;28.13;;
26656;SDS011;14279;50.010;8.260;2023-03-20T06:27:39;49.53;;;28.70;;
26656;SDS011;14279;50.010;8.260;2023-03-20T06:30:04;46.70;;;27.00;;
26656;SDS011;14279;50.010;8.260;2023-03-20T06:32:30;52.00;;;28.33;;
26656;SDS011;14279;50.010;8.260;2023-03-20T06:34:57;47.23;;;26.43;;
26656;SDS011;14279;50.010;8.260;2023-03-20T06:37:23;45.03;;;26.23;;
26656;SDS011;14279;50.010;8.260;2023-03-20T06:39:48;47.30;;;27.50;;
26656;SDS011;14279;50.010;8.260;2023-03-20T06:42:13;47.17;;;25.40;;
26656;SDS011;14279;50.010;8.260;2023-03-20T06:44:39;44.73;;;25.13;;
26656;SDS011;14279;50.010;8.260;2023-03-20T06:47:05;48.33;;;27.57;;
26656;SDS011;14279;50.010;8.260;2023-03-20T06:49:30;42.70;;;25.07;;
26656;SDS011;14279;50.010;8.260;2023-03-20T06:51:55;50.33;;;27.43;;
26656;SDS011;14279;50.010;8.260;2023-03-20T06:54:21;50.83;;;26.13;;
26656;SDS011;14279;50.010;8.260;2023-03-20T06:56:46;49.97;;;28.07;;
26656;SDS011;14279;50.010;8.260;2023-03-20T06:59:11;57.37;;;29.23;;
26656;SDS011;14279;50.010;8.260;2023-03-20T07:01:37;47.37;;;28.17;;
26656;SDS011;14279;50.010;8.260;2023-03-20T07:04:02;52.10;;;28.83;;
26656;SDS011;14279;50.010;8.260;2023-03-20T07:06:28;48.27;;;26.97;;
26656;SDS011;14279;50.010;8.260;2023-03-20T07:08:54;48.70;;;28.33;;
26656;SDS011;14279;50.010;8.260;2023-03-20T07:11:19;47.30;;;27.77;;
26656;SDS011;14279;50.010;8.260;2023-03-20T07:13:45;48.80;;;26.27;;
26656;SDS011;14279;50.010;8.260;2023-03-20T07:16:10;48.90;;;28.50;;
26656;SDS011;14279;50.010;8.260;2023-03-20T07:18:35;54.90;;;30.10;;
26656;SDS011;14279;50.010;8.260;2023-03-20T07:21:02;52.00;;;28.00;;
26656;SDS011;14279;50.010;8.260;2023-03-20T07:23:29;58.37;;;30.20;;
26656;SDS011;14279;50.010;8.260;2023-03-20T07:25:55;57.60;;;29.80;;
26656;SDS011;14279;50.010;8.260;2023-03-20T07:28:21;51.00;;;29.30;;
26656;SDS011;14279;50.010;8.260;2023-03-20T07:30:46;51.57;;;30.30;;
26656;SDS011;14279;50.010;8.260;2023-03-20T07:33:11;47.30;;;27.13;;
26656;SDS011;14279;50.010;8.260;2023-03-20T07:35:36;49.80;;;26.17;;
26656;SDS011;14279;50.010;8.260;2023-03-20T07:38:03;47.00;;;29.27;;
26656;SDS011;14279;50.010;8.260;2023-03-20T07:40:29;50.30;;;28.33;;
26656;SDS011;14279;50.010;8.260;2023-03-20T07:42:54;54.77;;;31.20;;
26656;SDS011;14279;50.010;8.260;2023-03-20T07:45:20;48.67;;;27.77;;
26656;SDS011;14279;50.010;8.260;2023-03-20T07:47:45;49.47;;;27.90;;
26656;SDS011;14279;50.010;8.260;2023-03-20T07:50:12;56.73;;;30.53;;
26656;SDS011;14279;50.010;8.260;2023-03-20T07:52:38;55.83;;;29.93;;
26656;SDS011;14279;50.010;8.260;2023-03-20T07:55:03;59.70;;;31.20;;
26656;SDS011;14279;50.010;8.260;2023-03-20T07:57:28;56.47;;;28.47;;
26656;SDS011;14279;50.010;8.260;2023-03-20T07:59:54;50.43;;;30.23;;
26656;SDS011;14279;50.010;8.260;2023-03-20T08:02:19;61.77;;;29.43;;
26656;SDS011;14279;50.010;8.260;2023-03-20T08:04:44;52.63;;;30.03;;
26656;SDS011;14279;50.010;8.260;2023-03-20T08:07:10;51.30;;;28.73;;
26656;SDS011;14279;50.010;8.260;2023-03-20T08:09:36;57.70;;;30.33;;
26656;SDS011;14279;50.010;8.260;2023-03-20T08:12:01;60.87;;;34.00;;
26656;SDS011;14279;50.010;8.260;2023-03-20T08:14:27;51.23;;;31.67;;
26656;SDS011;14279;50.010;8.260;2023-03-20T08:16:52;57.33;;;33.60;;
26656;SDS011;14279;50.010;8.260;2023-03-20T08:19:17;55.70;;;32.30;;
26656;SDS011;14279;50.010;8.260;2023-03-20T08:21:43;55.97;;;32.80;;
26656;SDS011;14279;50.010;8.260;2023-03-20T08:24:08;52.77;;;31.00;;
26656;SDS011;14279;50.010;8.260;2023-03-20T08:26:34;60.30;;;33.47;;
26656;SDS011;14279;50.010;8.260;2023-03-20T08:29:00;60.60;;;32.23;;
26656;SDS011;14279;50.010;8.260;2023-03-20T08:31:25;59.43;;;33.23;;
26656;SDS011;14279;50.010;8.260;2023-03-20T08:33:51;64.40;;;33.97;;
26656;SDS011;14279;50.010;8.260;2023-03-20T08:36:16;59.60;;;33.97;;
26656;SDS011;14279;50.010;8.260;2023-03-20T08:38:44;60.87;;;33.13;;
26656;SDS011;14279;50.010;8.260;2023-03-20T08:41:10;54.07;;;29.03;;
26656;SDS011;14279;50.010;8.260;2023-03-20T08:43:36;52.10;;;30.03;;
26656;SDS011;14279;50.010;8.260;2023-03-20T08:46:01;55.93;;;32.20;;
26656;SDS011;14279;50.010;8.260;2023-03-20T08:48:26;52.80;;;32.30;;
26656;SDS011;14279;50.010;8.260;2023-03-20T08:50:51;50.53;;;29.77;;
26656;SDS011;14279;50.010;8.260;2023-03-20T08:53:17;51.90;;;29.73;;
26656;SDS011;14279;50.010;8.260;2023-03-20T08:55:51;49.33;;;29.97;;
26656;SDS011;14279;50.010;8.260;2023-03-20T08:58:17;51.53;;;29.63;;
26656;SDS011;14279;50.010;8.260;2023-03-20T09:00:43;46.07;;;27.53;;
26656;SDS011;14279;50.010;8.260;2023-03-20T09:03:12;46.70;;;27.40;;
26656;SDS011;14279;50.010;8.260;2023-03-20T09:05:39;45.50;;;25.40;;
26656;SDS011;14279;50.010;8.260;2023-03-20T09:08:05;43.57;;;25.50;;
26656;SDS011;14279;50.010;8.260;2023-03-20T09:10:31;35.60;;;23.80;;
26656;SDS011;14279;50.010;8.260;2023-03-20T09:12:56;37.63;;;22.40;;
26656;SDS011;14279;50.010;8.260;2023-03-20T09:15:21;41.57;;;22.97;;
26656;SDS011;14279;50.010;8.260;2023-03-20T09:17:47;37.27;;;22.43;;
26656;SDS011;14279;50.010;8.260;2023-03-20T09:20:12;40.87;;;24.33;;
26656;SDS011;14279;50.010;8.260;2023-03-20T09:22:37;38.23;;;23.63;;
26656;SDS011;14279;50.010;8.260;2023-03-20T09:25:05;37.63;;;24.27;;
26656;SDS011;14279;50.010;8.260;2023-03-20T09:27:30;40.80;;;24.03;;
26656;SDS011;14279;50.010;8.260;2023-03-20T09:29:56;35.83;;;21.73;;
26656;SDS011;14279;50.010;8.260;2023-03-20T09:32:21;28.23;;;19.17;;
26656;SDS011;14279;50.010;8.260;2023-03-20T09:34:46;27.50;;;18.30;;
26656;SDS011;14279;50.010;8.260;2023-03-20T09:37:11;29.77;;;17.60;;
26656;SDS011;14279;50.010;8.260;2023-03-20T09:39:37;23.10;;;15.83;;
26656;SDS011;14279;50.010;8.260;2023-03-20T09:42:07;27.50;;;17.77;;
26656;SDS011;14279;50.010;8.260;2023-03-20T09:44:54;28.63;;;15.93;;
26656;SDS011;14279;50.010;8.260;2023-03-20T09:48:02;22.93;;;15.00;;
26656;SDS011;14279;50.010;8.260;2023-03-20T09:50:37;23.67;;;14.03;;
26656;SDS011;14279;50.010;8.260;2023-03-20T09:53:12;18.87;;;13.03;;
26656;SDS011;14279;50.010;8.260;2023-03-20T09:55:45;24.80;;;15.27;;
26656;SDS011;14279;50.010;8.260;2023-03-20T09:58:19;25.20;;;15.87;;
26656;SDS011;14279;50.010;8.260;2023-03-20T10:00:48;27.30;;;14.93;;
26656;SDS011;14279;50.010;8.260;2023-03-20T10:06:02;23.83;;;14.97;;
26656;SDS011;14279;50.010;8.260;2023-03-20T10:08:33;17.37;;;11.80;;
26656;SDS011;14279;50.010;8.260;2023-03-20T10:19:59;21.10;;;9.77;;
26656;SDS011;14279;50.010;8.260;2023-03-20T10:22:42;13.30;;;10.30;;
26656;SDS011;14279;50.010;8.260;2023-03-20T10:27:43;18.90;;;10.40;;
26656;SDS011;14279;50.010;8.260;2023-03-20T10:30:22;11.77;;;9.80;;
26656;SDS011;14279;50.010;8.260;2023-03-20T10:32:56;13.00;;;9.80;;
26656;SDS011;14279;50.010;8.260;2023-03-20T10:38:48;12.63;;;8.80;;
26656;SDS011;14279;50.010;8.260;2023-03-20T10:41:08;11.40;;;8.30;;
26656;SDS011;14279;50.010;8.260;2023-03-20T10:43:39;10.93;;;8.67;;
26656;SDS011;14279;50.010;8.260;2023-03-20T10:46:09;11.77;;;8.00;;
26656;SDS011;14279;50.010;8.260;2023-03-20T10:57:03;10.33;;;6.90;;
26656;SDS011;14279;50.010;8.260;2023-03-20T10:59:41;9.60;;;7.67;;
26656;SDS011;14279;50.010;8.260;2023-03-20T11:02:13;9.70;;;7.40;;
26656;SDS011;14279;50.010;8.260;2023-03-20T11:04:41;12.33;;;8.90;;
26656;SDS011;14279;50.010;8.260;2023-03-20T11:12:37;9.93;;;7.37;;
26656;SDS011;14279;50.010;8.260;2023-03-20T11:15:24;10.57;;;7.20;;
26656;SDS011;14279;50.010;8.260;2023-03-20T11:17:55;9.50;;;6.80;;
26656;SDS011;14279;50.010;8.260;2023-03-20T11:20:25;8.77;;;6.97;;
26656;SDS011;14279;50.010;8.260;2023-03-20T11:22:57;9.90;;;7.70;;
26656;SDS011;14279;50.010;8.260;2023-03-20T11:25:29;9.00;;;6.27;;
26656;SDS011;14279;50.010;8.260;2023-03-20T11:28:17;10.23;;;7.37;;
26656;SDS011;14279;50.010;8.260;2023-03-20T11:30:57;9.03;;;6.33;;
26656;SDS011;14279;50.010;8.260;2023-03-20T11:33:25;8.37;;;6.50;;
26656;SDS011;14279;50.010;8.260;2023-03-20T11:35:53;8.90;;;6.37;;
26656;SDS011;14279;50.010;8.260;2023-03-20T11:38:20;8.07;;;5.43;;
26656;SDS011;14279;50.010;8.260;2023-03-20T11:40:46;11.83;;;6.30;;
26656;SDS011;14279;50.010;8.260;2023-03-20T11:43:14;6.27;;;5.13;;
26656;SDS011;14279;50.010;8.260;2023-03-20T11:45:44;4.40;;;3.70;;
26656;SDS011;14279;50.010;8.260;2023-03-20T11:48:22;10.70;;;4.30;;
26656;SDS011;14279;50.010;8.260;2023-03-20T11:51:05;6.20;;;4.00;;
26656;SDS011;14279;50.010;8.260;2023-03-20T11:53:38;5.50;;;4.20;;
26656;SDS011;14279;50.010;8.260;2023-03-20T11:58:35;6.23;;;3.60;;
26656;SDS011;14279;50.010;8.260;2023-03-20T12:01:04;4.83;;;3.10;;
26656;SDS011;14279;50.010;8.260;2023-03-20T12:03:51;5.30;;;4.03;;
26656;SDS011;14279;50.010;8.260;2023-03-20T12:06:25;5.13;;;3.50;;
26656;SDS011;14279;50.010;8.260;2023-03-20T12:08:54;6.40;;;3.40;;
26656;SDS011;14279;50.010;8.260;2023-03-20T12:14:02;2.60;;;2.40;;
26656;SDS011;14279;50.010;8.260;2023-03-20T12:16:30;2.97;;;2.63;;
26656;SDS011;14279;50.010;8.260;2023-03-20T12:19:00;3.47;;;2.43;;
26656;SDS011;14279;50.010;8.260;2023-03-20T12:26:55;3.00;;;2.70;;
26656;SDS011;14279;50.010;8.260;2023-03-20T12:32:41;3.60;;;2.93;;
26656;SDS011;14279;50.010;8.260;2023-03-20T12:37:53;4.13;;;2.50;;
26656;SDS011;14279;50.010;8.260;2023-03-20T12:40:19;4.40;;;2.80;;
26656;SDS011;14279;50.010;8.260;2023-03-20T12:43:13;6.03;;;3.00;;
26656;SDS011;14279;50.010;8.260;2023-03-20T12:45:41;4.03;;;2.50;;
26656;SDS011;14279;50.010;8.260;2023-03-20T12:48:18;3.00;;;2.60;;
26656;SDS011;14279;50.010;8.260;2023-03-20T12:51:10;4.33;;;3.03;;
26656;SDS011;14279;50.010;8.260;2023-03-20T12:53:48;4.30;;;2.37;;
26656;SDS011;14279;50.010;8.260;2023-03-20T13:05:09;7.47;;;2.90;;
26656;SDS011;14279;50.010;8.260;2023-03-20T13:11:01;7.50;;;2.47;;
26656;SDS011;14279;50.010;8.260;2023-03-20T13:16:25;3.43;;;2.30;;
26656;SDS011;14279;50.010;8.260;2023-03-20T13:22:18;6.73;;;2.17;;
26656;SDS011;14279;50.010;8.260;2023-03-20T13:27:08;2.50;;;2.30;;
26656;SDS011;14279;50.010;8.260;2023-03-20T13:37:38;5.93;;;3.27;;
26656;SDS011;14279;50.010;8.260;2023-03-20T13:40:12;5.30;;;3.27;;
26656;SDS011;14279;50.010;8.260;2023-03-20T13:42:52;6.77;;;3.40;;
26656;SDS011;14279;50.010;8.260;2023-03-20T13:45:25;5.57;;;3.43;;
26656;SDS011;14279;50.010;8.260;2023-03-20T13:47:54;4.17;;;3.30;;
26656;SDS011;14279;50.010;8.260;2023-03-20T13:50:38;7.63;;;3.40;;
26656;SDS011;14279;50.010;8.260;2023-03-20T13:56:07;4.80;;;3.40;;
26656;SDS011;14279;50.010;8.260;2023-03-20T13:58:40;4.87;;;3.30;;
26656;SDS011;14279;50.010;8.260;2023-03-20T14:01:24;4.13;;;3.30;;
26656;SDS011;14279;50.010;8.260;2023-03-20T14:03:59;7.60;;;3.67;;
26656;SDS011;14279;50.010;8.260;2023-03-20T14:08:53;6.77;;;3.40;;
26656;SDS011;14279;50.010;8.260;2023-03-20T14:13:45;5.37;;;3.80;;
26656;SDS011;14279;50.010;8.260;2023-03-20T14:16:16;4.60;;;3.47;;
26656;SDS011;14279;50.010;8.260;2023-03-20T14:18:44;7.03;;;3.13;;
26656;SDS011;14279;50.010;8.260;2023-03-20T14:21:13;6.67;;;3.23;;
26656;SDS011;14279;50.010;8.260;2023-03-20T14:23:48;4.07;;;2.83;;
26656;SDS011;14279;50.010;8.260;2023-03-20T14:26:28;4.93;;;3.40;;
26656;SDS011;14279;50.010;8.260;2023-03-20T14:28:59;6.70;;;3.50;;
26656;SDS011;14279;50.010;8.260;2023-03-20T14:31:35;5.57;;;3.17;;
26656;SDS011;14279;50.010;8.260;2023-03-20T14:55:49;3.87;;;1.70;;
26656;SDS011;14279;50.010;8.260;2023-03-20T14:59:16;3.70;;;1.73;;
26656;SDS011;14279;50.010;8.260;2023-03-20T15:03:46;3.23;;;1.70;;
26656;SDS011;14279;50.010;8.260;2023-03-20T15:06:16;2.40;;;1.50;;
26656;SDS011;14279;50.010;8.260;2023-03-20T15:08:44;5.93;;;1.53;;
26656;SDS011;14279;50.010;8.260;2023-03-20T15:11:14;5.47;;;2.00;;
26656;SDS011;14279;50.010;8.260;2023-03-20T15:13:40;1.67;;;1.57;;
26656;SDS011;14279;50.010;8.260;2023-03-20T15:16:12;2.27;;;1.90;;
26656;SDS011;14279;50.010;8.260;2023-03-20T15:18:46;3.20;;;1.60;;
26656;SDS011;14279;50.010;8.260;2023-03-20T15:21:17;3.90;;;2.40;;
26656;SDS011;14279;50.010;8.260;2023-03-20T15:23:44;5.07;;;2.07;;
26656;SDS011;14279;50.010;8.260;2023-03-20T15:26:15;3.00;;;1.70;;
26656;SDS011;14279;50.010;8.260;2023-03-20T15:28:42;4.90;;;1.90;;
26656;SDS011;14279;50.010;8.260;2023-03-20T15:31:18;2.80;;;1.90;;
26656;SDS011;14279;50.010;8.260;2023-03-20T15:33:47;3.70;;;1.80;;
26656;SDS011;14279;50.010;8.260;2023-03-20T15:36:20;3.60;;;2.10;;
26656;SDS011;14279;50.010;8.260;2023-03-20T15:38:49;4.30;;;1.60;;
26656;SDS011;14279;50.010;8.260;2023-03-20T15:41:31;3.47;;;1.70;;
26656;SDS011;14279;50.010;8.260;2023-03-20T15:44:02;2.73;;;2.00;;
26656;SDS011;14279;50.010;8.260;2023-03-20T15:46:39;2.80;;;2.03;;
26656;SDS011;14279;50.010;8.260;2023-03-20T15:49:05;3.80;;;1.80;;
26656;SDS011;14279;50.010;8.260;2023-03-20T15:51:30;2.27;;;1.93;;
26656;SDS011;14279;50.010;8.260;2023-03-20T15:53:58;7.33;;;2.20;;
26656;SDS011;14279;50.010;8.260;2023-03-20T15:56:25;2.60;;;2.23;;
26656;SDS011;14279;50.010;8.260;2023-03-20T15:58:51;2.90;;;2.37;;
26656;SDS011;14279;50.010;8.260;2023-03-20T16:01:18;6.30;;;2.37;;
26656;SDS011;14279;50.010;8.260;2023-03-20T16:03:45;8.37;;;2.73;;
26656;SDS011;14279;50.010;8.260;2023-03-20T16:06:11;4.47;;;2.23;;
26656;SDS011;14279;50.010;8.260;2023-03-20T16:08:40;3.23;;;2.20;;
26656;SDS011;14279;50.010;8.260;2023-03-20T16:11:06;3.00;;;2.30;;
26656;SDS011;14279;50.010;8.260;2023-03-20T16:13:44;5.83;;;2.13;;
26656;SDS011;14279;50.010;8.260;2023-03-20T16:16:13;6.30;;;2.60;;
26656;SDS011;14279;50.010;8.260;2023-03-20T16:18:41;9.70;;;2.73;;
26656;SDS011;14279;50.010;8.260;2023-03-20T16:21:30;4.50;;;2.87;;
26656;SDS011;14279;50.010;8.260;2023-03-20T16:23:58;3.60;;;3.00;;
26656;SDS011;14279;50.010;8.260;2023-03-20T16:26:25;4.37;;;3.00;;
26656;SDS011;14279;50.010;8.260;2023-03-20T16:28:58;7.03;;;3.40;;
26656;SDS011;14279;50.010;8.260;2023-03-20T16:31:27;4.30;;;2.67;;
26656;SDS011;14279;50.010;8.260;2023-03-20T16:34:00;8.87;;;3.00;;
26656;SDS011;14279;50.010;8.260;2023-03-20T16:36:35;5.33;;;2.63;;
26656;SDS011;14279;50.010;8.260;2023-03-20T16:41:33;11.23;;;2.93;;
26656;SDS011;14279;50.010;8.260;2023-03-20T16:44:07;3.77;;;2.73;;
26656;SDS011;14279;50.010;8.260;2023-03-20T16:52:07;6.03;;;2.70;;
26656;SDS011;14279;50.010;8.260;2023-03-20T16:54:38;4.70;;;2.50;;
26656;SDS011;14279;50.010;8.260;2023-03-20T16:57:07;3.17;;;2.00;;
26656;SDS011;14279;50.010;8.260;2023-03-20T16:59:37;2.90;;;2.20;;
26656;SDS011;14279;50.010;8.260;2023-03-20T17:02:09;4.57;;;2.30;;
26656;SDS011;14279;50.010;8.260;2023-03-20T17:04:56;5.97;;;2.00;;
26656;SDS011;14279;50.010;8.260;2023-03-20T17:07:27;5.03;;;2.13;;
26656;SDS011;14279;50.010;8.260;2023-03-20T17:09:58;6.40;;;3.10;;